sensor_id;sensor_type;location;lat;lon;timestamp;pressure;altitude;pressure_sealevel;temperature;humidity
76687;BME280;65615;47.378;19.344;2023-05-23T04:21:25;99875.59;;;14.79;100.00
76687;BME280;65615;47.378;19.344;2023-05-23T04:25:30;99875.59;;;14.79;100.00
76687;BME280;65615;47.378;19.344;2023-05-23T04:29:35;99882.62;;;14.38;100.00
76687;BME280;65615;47.378;19.344;2023-05-23T04:33:40;99883.28;;;14.68;100.00
76687;BME280;65615;47.378;19.344;2023-05-23T04:37:43;99875.12;;;14.97;100.00
76687;BME280;65615;47.378;19.344;2023-05-23T04:41:48;99871.19;;;15.20;100.00
76687;BME280;65615;47.378;19.344;2023-05-23T04:45:52;99872.28;;;15.32;100.00
76687;BME280;65615;47.378;19.344;2023-05-23T04:50:00;99873.53;;;15.37;100.00
76687;BME280;65615;47.378;19.344;2023-05-23T04:54:04;99871.63;;;15.65;100.00
76687;BME280;65615;47.378;19.344;2023-05-23T04:58:08;99860.97;;;15.65;100.00
76687;BME280;65615;47.378;19.344;2023-05-23T05:07:41;99866.25;;;16.25;100.00
76687;BME280;65615;47.378;19.344;2023-05-23T05:11:44;99871.37;;;16.40;100.00
76687;BME280;65615;47.378;19.344;2023-05-23T05:15:48;99869.78;;;16.52;100.00
76687;BME280;65615;47.378;19.344;2023-05-23T05:19:56;99867.34;;;16.63;100.00
76687;BME280;65615;47.378;19.344;2023-05-23T05:23:58;99878.00;;;16.83;100.00
76687;BME280;65615;47.378;19.344;2023-05-23T05:28:02;99867.69;;;16.99;100.00
76687;BME280;65615;47.378;19.344;2023-05-23T05:32:08;99874.22;;;17.17;100.00
76687;BME280;65615;47.378;19.344;2023-05-23T05:36:11;99864.94;;;17.26;100.00
76687;BME280;65615;47.378;19.344;2023-05-23T05:40:14;99867.59;;;17.39;100.00
76687;BME280;65615;47.378;19.344;2023-05-23T05:44:18;99870.00;;;17.60;100.00
76687;BME280;65615;47.378;19.344;2023-05-23T05:48:20;99875.66;;;17.83;100.00
76687;BME280;65615;47.378;19.344;2023-05-23T05:52:25;99869.81;;;17.99;100.00
76687;BME280;65615;47.378;19.344;2023-05-23T05:56:28;99871.03;;;18.03;100.00
76687;BME280;65615;47.378;19.344;2023-05-23T06:00:33;99872.00;;;18.15;100.00
76687;BME280;65615;47.378;19.344;2023-05-23T06:04:44;99866.28;;;18.36;100.00
76687;BME280;65615;47.378;19.344;2023-05-23T06:08:47;99871.19;;;18.71;100.00
76687;BME280;65615;47.378;19.344;2023-05-23T06:12:51;99877.41;;;18.64;100.00
76687;BME280;65615;47.378;19.344;2023-05-23T06:16:54;99882.03;;;19.00;100.00
76687;BME280;65615;47.378;19.344;2023-05-23T06:21:00;99883.34;;;19.16;100.00
76687;BME280;65615;47.378;19.344;2023-05-23T06:25:06;99883.75;;;19.13;100.00
76687;BME280;65615;47.378;19.344;2023-05-23T06:29:10;99879.94;;;19.63;100.00
76687;BME280;65615;47.378;19.344;2023-05-23T06:33:13;99888.78;;;20.11;100.00
76687;BME280;65615;47.378;19.344;2023-05-23T06:37:16;99889.78;;;20.28;95.31
76687;BME280;65615;47.378;19.344;2023-05-23T06:41:22;99888.41;;;20.26;94.75
76687;BME280;65615;47.378;19.344;2023-05-23T06:45:27;99883.88;;;20.38;94.74
76687;BME280;65615;47.378;19.344;2023-05-23T06:49:30;99887.75;;;20.54;93.62
76687;BME280;65615;47.378;19.344;2023-05-23T06:53:33;99892.66;;;20.57;94.36
76687;BME280;65615;47.378;19.344;2023-05-23T06:57:37;99891.41;;;20.82;93.03
76687;BME280;65615;47.378;19.344;2023-05-23T07:01:40;99894.56;;;20.91;91.63
76687;BME280;65615;47.378;19.344;2023-05-23T07:05:43;99883.88;;;21.14;94.38
76687;BME280;65615;47.378;19.344;2023-05-23T07:09:49;99882.22;;;21.36;89.85
76687;BME280;65615;47.378;19.344;2023-05-23T07:13:52;99874.44;;;21.51;89.89
76687;BME280;65615;47.378;19.344;2023-05-23T07:18:00;99882.28;;;22.04;87.70
76687;BME280;65615;47.378;19.344;2023-05-23T07:22:03;99872.78;;;22.30;88.44
76687;BME280;65615;47.378;19.344;2023-05-23T07:26:08;99871.97;;;22.46;84.93
76687;BME280;65615;47.378;19.344;2023-05-23T07:30:13;99876.66;;;22.67;84.86
76687;BME280;65615;47.378;19.344;2023-05-23T07:34:18;99870.03;;;22.91;83.66
76687;BME280;65615;47.378;19.344;2023-05-23T07:38:22;99865.06;;;22.83;78.90
76687;BME280;65615;47.378;19.344;2023-05-23T07:42:25;99868.06;;;23.03;81.02
76687;BME280;65615;47.378;19.344;2023-05-23T07:46:28;99862.34;;;23.54;80.54
76687;BME280;65615;47.378;19.344;2023-05-23T07:50:34;99854.97;;;23.72;75.13
76687;BME280;65615;47.378;19.344;2023-05-23T07:54:37;99848.69;;;23.88;75.18
76687;BME280;65615;47.378;19.344;2023-05-23T07:58:40;99857.09;;;24.13;70.85
76687;BME280;65615;47.378;19.344;2023-05-23T08:02:43;99858.69;;;24.40;72.91
76687;BME280;65615;47.378;19.344;2023-05-23T08:06:48;99853.84;;;24.74;72.40
76687;BME280;65615;47.378;19.344;2023-05-23T08:11:06;99851.38;;;25.09;72.60
76687;BME280;65615;47.378;19.344;2023-05-23T08:15:11;99853.03;;;25.15;68.32
76687;BME280;65615;47.378;19.344;2023-05-23T08:19:14;99854.69;;;25.21;68.04
76687;BME280;65615;47.378;19.344;2023-05-23T08:23:18;99857.03;;;25.03;67.13
76687;BME280;65615;47.378;19.344;2023-05-23T08:27:21;99850.53;;;25.56;66.36
76687;BME280;65615;47.378;19.344;2023-05-23T08:31:28;99854.84;;;25.47;64.32
76687;BME280;65615;47.378;19.344;2023-05-23T08:35:31;99850.00;;;25.54;64.95
76687;BME280;65615;47.378;19.344;2023-05-23T08:39:40;99854.63;;;25.58;66.06
76687;BME280;65615;47.378;19.344;2023-05-23T08:43:45;99853.38;;;25.91;63.28
76687;BME280;65615;47.378;19.344;2023-05-23T08:47:51;99854.56;;;26.15;63.59
76687;BME280;65615;47.378;19.344;2023-05-23T08:51:55;99860.53;;;26.47;67.28
76687;BME280;65615;47.378;19.344;2023-05-23T08:56:04;99858.34;;;26.44;57.78
76687;BME280;65615;47.378;19.344;2023-05-23T09:00:12;99854.28;;;26.42;62.01
76687;BME280;65615;47.378;19.344;2023-05-23T09:04:17;99849.41;;;26.24;62.25
76687;BME280;65615;47.378;19.344;2023-05-23T09:08:20;99844.81;;;26.59;62.15
76687;BME280;65615;47.378;19.344;2023-05-23T09:12:28;99851.84;;;26.90;64.19
76687;BME280;65615;47.378;19.344;2023-05-23T09:16:32;99846.94;;;27.13;53.82
76687;BME280;65615;47.378;19.344;2023-05-23T09:20:41;99849.59;;;27.33;53.34
76687;BME280;65615;47.378;19.344;2023-05-23T09:24:46;99847.16;;;27.26;52.48
76687;BME280;65615;47.378;19.344;2023-05-23T09:28:51;99842.88;;;27.15;54.81
76687;BME280;65615;47.378;19.344;2023-05-23T09:33:00;99849.25;;;27.59;55.08
76687;BME280;65615;47.378;19.344;2023-05-23T09:37:16;99841.75;;;27.95;53.36
76687;BME280;65615;47.378;19.344;2023-05-23T09:41:23;99832.50;;;27.91;52.88
76687;BME280;65615;47.378;19.344;2023-05-23T09:45:35;99823.81;;;27.99;51.88
76687;BME280;65615;47.378;19.344;2023-05-23T09:49:46;99828.50;;;28.27;50.02
76687;BME280;65615;47.378;19.344;2023-05-23T09:54:20;99833.53;;;28.78;50.30
76687;BME280;65615;47.378;19.344;2023-05-23T09:58:27;99823.72;;;28.77;51.21
76687;BME280;65615;47.378;19.344;2023-05-23T10:03:04;99821.84;;;29.01;52.78
76687;BME280;65615;47.378;19.344;2023-05-23T10:07:42;99823.22;;;29.27;46.90
76687;BME280;65615;47.378;19.344;2023-05-23T10:17:02;99810.97;;;28.43;44.20
76687;BME280;65615;47.378;19.344;2023-05-23T10:21:38;99812.75;;;29.15;47.00
76687;BME280;65615;47.378;19.344;2023-05-23T10:25:51;99816.44;;;29.48;48.43
76687;BME280;65615;47.378;19.344;2023-05-23T10:30:00;99811.63;;;29.82;43.31
76687;BME280;65615;47.378;19.344;2023-05-23T10:39:08;99797.88;;;29.03;44.83
76687;BME280;65615;47.378;19.344;2023-05-23T10:47:49;99808.00;;;29.26;45.86
76687;BME280;65615;47.378;19.344;2023-05-23T10:52:24;99795.59;;;29.15;44.48
76687;BME280;65615;47.378;19.344;2023-05-23T10:57:03;99796.06;;;29.46;46.60
76687;BME280;65615;47.378;19.344;2023-05-23T11:01:14;99784.81;;;29.05;39.31
76687;BME280;65615;47.378;19.344;2023-05-23T11:05:27;99778.03;;;29.68;43.96
76687;BME280;65615;47.378;19.344;2023-05-23T11:09:33;99776.97;;;29.88;44.29
76687;BME280;65615;47.378;19.344;2023-05-23T11:17:55;99777.03;;;30.01;40.62
76687;BME280;65615;47.378;19.344;2023-05-23T11:22:01;99774.56;;;30.51;40.36
76687;BME280;65615;47.378;19.344;2023-05-23T11:26:04;99765.13;;;30.62;41.92
76687;BME280;65615;47.378;19.344;2023-05-23T11:30:52;99756.47;;;30.09;42.46
76687;BME280;65615;47.378;19.344;2023-05-23T11:35:02;99750.19;;;30.08;40.87
76687;BME280;65615;47.378;19.344;2023-05-23T11:54:23;99731.53;;;30.34;40.61
76687;BME280;65615;47.378;19.344;2023-05-23T11:58:30;99725.75;;;30.03;41.32
76687;BME280;65615;47.378;19.344;2023-05-23T12:03:13;99719.00;;;29.82;41.03
76687;BME280;65615;47.378;19.344;2023-05-23T12:08:02;99711.75;;;30.10;40.16
76687;BME280;65615;47.378;19.344;2023-05-23T12:12:16;99708.94;;;30.61;40.94
76687;BME280;65615;47.378;19.344;2023-05-23T12:16:59;99714.53;;;29.91;39.93
76687;BME280;65615;47.378;19.344;2023-05-23T12:21:06;99697.56;;;30.27;40.74
76687;BME280;65615;47.378;19.344;2023-05-23T12:25:14;99692.22;;;30.21;35.36
76687;BME280;65615;47.378;19.344;2023-05-23T12:29:31;99683.59;;;30.14;35.79
76687;BME280;65615;47.378;19.344;2023-05-23T12:33:38;99679.66;;;30.53;36.50
76687;BME280;65615;47.378;19.344;2023-05-23T12:37:49;99668.56;;;31.03;36.11
76687;BME280;65615;47.378;19.344;2023-05-23T12:42:16;99668.25;;;30.64;35.64
76687;BME280;65615;47.378;19.344;2023-05-23T12:46:20;99662.91;;;30.46;34.01
76687;BME280;65615;47.378;19.344;2023-05-23T12:50:24;99667.41;;;31.18;32.74
76687;BME280;65615;47.378;19.344;2023-05-23T12:54:27;99656.00;;;31.16;32.19
76687;BME280;65615;47.378;19.344;2023-05-23T12:58:33;99651.97;;;31.49;32.74
76687;BME280;65615;47.378;19.344;2023-05-23T13:02:36;99647.44;;;30.55;32.76
76687;BME280;65615;47.378;19.344;2023-05-23T13:06:43;99637.41;;;31.04;33.47
76687;BME280;65615;47.378;19.344;2023-05-23T13:10:47;99640.84;;;30.96;34.13
76687;BME280;65615;47.378;19.344;2023-05-23T13:14:50;99624.25;;;31.20;33.83
76687;BME280;65615;47.378;19.344;2023-05-23T13:18:54;99618.50;;;31.08;36.23
76687;BME280;65615;47.378;19.344;2023-05-23T13:22:59;99617.44;;;30.55;37.06
76687;BME280;65615;47.378;19.344;2023-05-23T13:27:03;99610.75;;;31.01;40.29
76687;BME280;65615;47.378;19.344;2023-05-23T13:31:06;99611.97;;;30.95;35.53
76687;BME280;65615;47.378;19.344;2023-05-23T13:35:09;99615.06;;;30.21;36.35
76687;BME280;65615;47.378;19.344;2023-05-23T13:39:16;99610.97;;;30.91;35.96
76687;BME280;65615;47.378;19.344;2023-05-23T13:43:22;99611.16;;;30.95;34.12
76687;BME280;65615;47.378;19.344;2023-05-23T13:47:40;99620.78;;;30.52;35.49
76687;BME280;65615;47.378;19.344;2023-05-23T13:51:47;99616.91;;;30.80;36.81
76687;BME280;65615;47.378;19.344;2023-05-23T13:56:13;99611.97;;;30.95;39.13
76687;BME280;65615;47.378;19.344;2023-05-23T14:00:16;99612.19;;;30.45;35.20
76687;BME280;65615;47.378;19.344;2023-05-23T14:04:24;99608.06;;;30.88;37.54
76687;BME280;65615;47.378;19.344;2023-05-23T14:08:27;99605.13;;;30.44;40.12
76687;BME280;65615;47.378;19.344;2023-05-23T14:12:35;99595.19;;;31.02;39.88
76687;BME280;65615;47.378;19.344;2023-05-23T14:16:39;99598.25;;;30.60;38.15
76687;BME280;65615;47.378;19.344;2023-05-23T14:21:42;99594.00;;;30.67;34.98
76687;BME280;65615;47.378;19.344;2023-05-23T14:25:48;99595.22;;;31.24;34.03
76687;BME280;65615;47.378;19.344;2023-05-23T14:29:58;99604.22;;;30.35;34.55
76687;BME280;65615;47.378;19.344;2023-05-23T14:34:04;99585.28;;;30.79;35.26
76687;BME280;65615;47.378;19.344;2023-05-23T14:38:09;99580.66;;;30.11;37.09
76687;BME280;65615;47.378;19.344;2023-05-23T14:42:12;99571.19;;;30.50;38.33
76687;BME280;65615;47.378;19.344;2023-05-23T14:46:16;99573.44;;;30.48;35.17
76687;BME280;65615;47.378;19.344;2023-05-23T14:50:19;99577.03;;;30.57;35.33
76687;BME280;65615;47.378;19.344;2023-05-23T14:54:22;99575.66;;;30.46;35.87
76687;BME280;65615;47.378;19.344;2023-05-23T14:58:25;99584.31;;;30.48;36.19
76687;BME280;65615;47.378;19.344;2023-05-23T15:02:28;99584.41;;;31.19;35.81
